• Join FlightAware (Why Join?)
  • Login
  • US Flag 
Rudolph Flight #1: Arrived! 
10:31AM EST


 

Airport Tracker/Info


-or-


 

Live Flight TrackerFlight Track Log ✈ ASQ4976 ✈ 06-May-2013 ✈ KALB - KATL

Flight Track Log - Related Links

Times and Time Zones

All times are in EDT time to prevent confusion due to time zone crossing. See the ASQ4976 flight status page for this flight to view local times or setup timezone preferences in your user account.

Time Position Orientation Groundspeed Altitude Reporting Facility
EDT Latitude Longitude Course Direction KTS MPH feet Rate Location/Type
01:39PM 42.6318 -73.9665 196° South  Level Estimated
01:40PM 42.6617 -74.0833 180° South 231 266 11,500  Level Boston Center
01:42PM 42.5431 -74.2460 225° Southwest  Level Estimated
01:42PM 42.5714 -74.2500 225° Southwest 298 343 13,800  Level Boston Center
01:43PM 42.4867 -74.3350 217° Southwest 344 396 15,800 1,860 Climbing Boston Center
01:44PM 42.4083 -74.2847 155° Southeast 297 342 17,600 1,500 Climbing Boston Center
01:45PM 42.3289 -74.1756 135° Southeast 338 389 18,800 1,380 Climbing Boston Center
01:46PM 42.1046 -74.6942 180° South  Level Estimated
01:47PM 42.1578 -74.0364 149° Southeast 375 432 21,900  Level Boston Center
01:48PM 42.0411 -74.0447 183° South 391 450 23,000 1,020 Climbing Boston Center
01:49PM 41.9178 -74.0528 183° South 417 480 24,000 1,320 Climbing Boston Center
01:51PM 41.7475 -74.0500 180° South  Level FlightAware Approximate
01:52PM 41.5247 -74.1822 230° Southwest 432 497 29,000  Level New York Center
01:53PM 41.4211 -74.3014 221° Southwest 432 497 30,800 960 Climbing New York Center
01:55PM 41.3436 -74.4205 229° Southwest  Level Estimated
01:55PM 41.2406 -74.4850 229° Southwest 442 509 32,000  Level New York Center
01:57PM 41.1620 -74.6058 229° Southwest  Level Estimated
01:58PM 41.0476 -74.2253 230° Southwest  Level FlightAware Approximate
01:59PM 40.8411 -74.9128 229° Southwest 468 539 32,000  Level New York Center
02:01PM 40.7629 -75.0332 229° Southwest  Level Estimated
02:01PM 40.6417 -75.1278 229° Southwest 463 533 32,000  Level New York Center
02:02PM 40.5397 -75.2361 219° Southwest 463 533 32,000  Level New York Center
02:04PM 40.6668 -75.3564 229° Southwest  Level Estimated
02:04PM 40.3378 -75.4436 218° Southwest 463 533 32,000  Level New York Center
02:05PM 40.5956 -75.4627 229° Southwest  Level Estimated
02:06PM 40.1656 -75.6819 227° Southwest 458 527 32,000  Level New York Center
02:08PM 40.0242 -75.9619 237° Southwest 464 534 32,000  Level New York Center
02:09PM 39.9536 -76.0975 236° Southwest 469 540 32,000  Level New York Center
02:12PM 39.8105 -76.3402 236° Southwest  Level FlightAware Approximate
02:12PM 39.7339 -76.5156 236° Southwest 469 540 32,000  Level New York Center
02:13PM 39.6622 -76.6556 236° Southwest 464 534 32,000  Level New York Center
02:15PM 39.5906 -76.7805 233° Southwest  Level FlightAware Approximate
02:17PM 39.3875 -77.0900 219° Southwest 466 536 32,000  Level Washington Center
02:19PM 39.1950 -77.3031 221° Southwest 467 537 32,000  Level Washington Center
02:20PM 39.1078 -77.4292 228° Southwest 461 531 32,000  Level Washington Center
02:21PM 39.0247 -77.5500 229° Southwest 461 531 32,000  Level Washington Center
02:22PM 39.0103 -77.4600 219° Southwest  Level FlightAware Approximate
02:23PM 38.8517 -77.7908 227° Southwest 461 531 32,000  Level Washington Center
02:24PM 38.7744 -77.9031 229° Southwest 461 531 32,000  Level Washington Center
02:25PM 38.6886 -78.0225 227° Southwest 461 531 32,000  Level Washington Center
02:26PM 38.6028 -78.1419 227° Southwest 461 531 32,000  Level Washington Center
02:28PM 38.4836 -78.3534 227° Southwest  Level FlightAware Approximate
02:30PM 38.2686 -78.6144 227° Southwest 461 531 32,000  Level Washington Center
02:32PM 38.1322 -78.8014 227° Southwest  Level Estimated
02:34PM 37.9158 -79.0925 227° Southwest 456 525 32,000  Level Washington Center
02:35PM 37.9444 -79.0829 227° Southwest  Level FlightAware Approximate
02:36PM 37.7589 -79.3114 228° Southwest 456 525 32,000  Level Washington Center
02:37PM 37.6739 -79.4253 227° Southwest 451 519 32,000  Level Washington Center
02:38PM 37.5800 -79.5542 227° Southwest 451 519 32,000  Level Washington Center
02:39PM 37.5941 -79.5287 227° Southwest  Level Estimated
02:39PM 37.5058 -79.6550 227° Southwest 451 519 32,000  Level Washington Center
02:40PM 37.4203 -79.7733 228° Southwest 456 525 32,000  Level Washington Center
02:42PM 37.2533 -79.9975 227° Southwest 452 520 32,000  Level Atlanta Center
02:44PM 37.0814 -80.2275 227° Southwest 444 511 32,000 240 Level Atlanta Center
02:46PM 36.8900 -80.4519 223° Southwest 455 524 33,000 660 Climbing Atlanta Center
02:47PM 36.7928 -80.5472 218° Southwest 450 518 34,100 480 Climbing Atlanta Center
02:48PM 36.7125 -80.6619 229° Southwest 436 502 34,000 -60 Descending Atlanta Center
02:49PM 36.6261 -80.7769 227° Southwest 450 518 34,000  Level Atlanta Center
02:51PM 36.4528 -81.0111 227° Southwest 466 536 34,000  Level Atlanta Center
02:52PM 36.3639 -81.1306 227° Southwest 466 536 34,000  Level Atlanta Center
02:53PM 36.2850 -81.2364 227° Southwest 466 536 34,000  Level Atlanta Center
02:54PM 36.1958 -81.3578 228° Southwest 471 542 34,000  Level Atlanta Center
02:56PM 36.0567 -81.5432 227° Southwest  Level FlightAware Approximate
02:58PM 35.8506 -81.8200 229° Southwest 456 525 34,000  Level Atlanta Center
02:59PM 35.7647 -81.9300 226° Southwest 456 525 34,000  Level Atlanta Center
03:01PM 35.6193 -82.1069 225° Southwest  Level Estimated
03:02PM 35.4903 -82.2533 225° Southwest 454 522 34,000  Level Atlanta Center
03:03PM 35.5253 -82.2479 229° Southwest  Level FlightAware Approximate
03:03PM 35.3897 -82.3700 223° Southwest 459 528 32,200  Level Atlanta Center
03:04PM 35.2953 -82.4789 223° Southwest 465 535 29,900 -2,040 Descending Atlanta Center
03:05PM 35.2047 -82.5822 223° Southwest 458 527 28,200 -1,500 Descending Atlanta Center
03:06PM 35.1325 -82.6597 221° Southwest 430 495 27,000 -1,320 Descending Atlanta Center
03:07PM 35.0564 -82.7522 225° Southwest 402 463 25,600 -1,440 Descending Atlanta Center
03:08PM 34.9800 -82.8372 222° Southwest 386 444 24,200 -540 Descending Atlanta Center
03:10PM 34.8356 -83.0064 224° Southwest 369 425 24,000 -120 Descending Atlanta Center
03:11PM 34.7589 -83.0881 221° Southwest 363 418 24,000  Level Atlanta Center
03:13PM 34.6143 -83.2637 220° Southwest  Level Estimated
03:13PM 34.6119 -83.2539 220° Southwest 373 429 24,000  Level Atlanta Center
03:14PM 34.5394 -83.3428 225° Southwest 368 423 23,100 -1,560 Descending Atlanta Center
03:15PM 34.4647 -83.4242 222° Southwest 368 423 20,900 -2,160 Descending Atlanta Center
03:16PM 34.3881 -83.5103 223° Southwest 368 423 18,800 -2,160 Descending Atlanta Center
03:17PM 34.3172 -83.5886 222° Southwest 353 406 16,600 -2,160 Descending Atlanta Center
03:18PM 34.2508 -83.6619 222° Southwest 337 388 14,500 -1,800 Descending Atlanta Center
03:19PM 34.1861 -83.7325 222° Southwest 332 382 13,100 -900 Descending Atlanta Center
03:21PM 34.0667 -83.8667 223° Southwest 271 312 11,900 -840 Descending Atlanta TRACON
03:22PM 34.0167 -83.9167 220° Southwest 265 305 10,700 -840 Descending Atlanta TRACON
03:24PM 33.8833 -83.9667 197° South 278 320 9,400 -600 Descending Atlanta TRACON
03:25PM 33.8000 -83.9500 171° South 277 319 9,000 -420 Descending Atlanta TRACON
03:26PM 33.7336 -83.9389 172° South 277 319 8,600 -540 Descending Atlanta Center
03:29PM 33.6333 -84.0833 230° Southwest 210 242 6,900 -900 Descending Atlanta TRACON
03:31PM 33.6367 -84.4279 270° West  Level Estimated
03:32PM 33.6333 -84.2833 64° Northeast 186 214 3,300  Level Atlanta TRACON
03:33PM 33.6333 -84.3500 270° West 175 201 2,300 -900 Descending Atlanta TRACON
03:34PM 33.6333 -84.4000 270° West 140 161 1,500 -840 Descending Atlanta TRACON
03:36PM 33.6367 -84.4279 270° West  Level Estimated
03:38PM 33.6367 -84.4279 64° Northeast  Level Estimated
03:43PM 33.6367 -84.4279 64° Northeast  Level Estimated
03:44PM 33.6367 -84.4279 64° Northeast  Level Estimated
03:45PM 33.6367 -84.4279 64° Northeast  Level Estimated
03:46PM 33.6367 -84.4279 64° Northeast  Level Estimated
03:47PM 33.6367 -84.4279 64° Northeast  Level Estimated
03:48PM 33.6367 -84.4279 64° Northeast  Level Estimated
03:49PM 33.6367 -84.4279 64° Northeast  Level Estimated
03:50PM 33.6367 -84.4279 64° Northeast  Level Estimated
03:51PM 33.6367 -84.4279 64° Northeast  Level Estimated
03:52PM 33.6367 -84.4279 64° Northeast  Level Estimated
03:53PM 33.6367 -84.4279 64° Northeast  Level Estimated
03:54PM 33.6367 -84.4279 64° Northeast  Level Estimated
03:55PM 33.6367 -84.4279 64° Northeast  Level Estimated
03:56PM 33.6367 -84.4279 64° Northeast  Level Estimated
03:57PM 33.6367 -84.4279 64° Northeast  Level Estimated
03:58PM 33.6367 -84.4279 64° Northeast  Level Estimated
03:59PM 33.6367 -84.4279 64° Northeast  Level Estimated
04:00PM 33.6367 -84.4279 64° Northeast  Level Estimated